createdAt,value
2018-09-28T00:00:47.558Z,69.35
2018-09-28T00:01:51.994Z,69.00
2018-09-28T00:02:56.449Z,69.15
2018-09-28T00:04:00.953Z,69.10
2018-09-28T00:05:05.574Z,69.03
2018-09-28T00:06:10.592Z,69.28
2018-09-28T00:07:15.071Z,69.42
2018-09-28T00:08:20.269Z,69.40
2018-09-28T00:09:25.648Z,69.63
2018-09-28T00:10:31.375Z,69.71
2018-09-28T00:11:35.851Z,69.61
2018-09-28T00:12:40.619Z,69.83
2018-09-28T00:13:45.070Z,70.10
2018-09-28T00:14:49.545Z,70.22
2018-09-28T00:15:54.307Z,70.21
2018-09-28T00:16:58.798Z,70.50
2018-09-28T00:18:03.291Z,70.55
2018-09-28T00:19:07.736Z,70.49
2018-09-28T00:20:12.195Z,70.97
2018-09-28T00:21:16.628Z,71.00
2018-09-28T00:22:23.005Z,71.20
2018-09-28T00:23:27.531Z,70.99
2018-09-28T00:24:32.336Z,71.08
2018-09-28T00:25:38.466Z,71.08
2018-09-28T00:26:42.940Z,70.89
2018-09-28T00:27:48.672Z,70.87
2018-09-28T00:28:53.773Z,71.42
2018-09-28T00:29:58.225Z,71.31
2018-09-28T00:31:03.845Z,71.62
2018-09-28T00:32:08.413Z,71.51
2018-09-28T00:33:13.024Z,71.77
2018-09-28T00:34:17.561Z,71.47
2018-09-28T00:35:22.063Z,71.93
2018-09-28T00:36:26.538Z,71.69
2018-09-28T00:37:31.453Z,71.68
2018-09-28T00:38:35.923Z,71.54
2018-09-28T00:39:40.384Z,71.27
2018-09-28T00:40:44.879Z,71.33
2018-09-28T00:41:49.344Z,71.37
2018-09-28T00:42:53.868Z,71.65
2018-09-28T00:43:59.628Z,71.50
2018-09-28T00:45:04.099Z,71.33
2018-09-28T00:46:08.574Z,71.60
2018-09-28T00:47:13.027Z,71.38
2018-09-28T00:48:17.618Z,71.56
2018-09-28T00:49:22.110Z,72.05
2018-09-28T00:50:27.003Z,71.98
2018-09-28T00:51:31.461Z,71.65
2018-09-28T00:52:36.156Z,71.88
2018-09-28T00:53:40.977Z,71.61
2018-09-28T00:54:45.435Z,72.20
2018-09-28T00:55:49.877Z,72.44
2018-09-28T00:56:54.644Z,72.40
2018-09-28T00:57:59.102Z,72.60
2018-09-28T00:59:03.533Z,72.94
2018-09-28T01:00:07.978Z,72.86
2018-09-28T01:01:12.769Z,73.08
2018-09-28T01:02:17.252Z,73.26
2018-09-28T01:03:22.006Z,73.33
2018-09-28T01:04:26.470Z,73.48
2018-09-28T01:05:30.921Z,73.25
2018-09-28T01:06:35.414Z,73.11
2018-09-28T01:07:39.927Z,73.17
2018-09-28T01:08:44.799Z,73.42
2018-09-28T01:09:49.918Z,73.15
2018-09-28T01:10:54.473Z,73.55
2018-09-28T01:11:59.096Z,73.52
2018-09-28T01:13:03.574Z,73.39
2018-09-28T01:14:08.054Z,73.63
2018-09-28T01:15:12.533Z,73.60
2018-09-28T01:16:17.707Z,73.53
2018-09-28T01:17:22.183Z,73.71
2018-09-28T01:18:26.618Z,73.56
2018-09-28T01:19:31.098Z,74.17
2018-09-28T01:20:35.717Z,74.16
2018-09-28T01:21:40.189Z,74.38
2018-09-28T01:22:44.914Z,74.89
2018-09-28T01:23:49.372Z,75.11
2018-09-28T01:24:53.900Z,75.12
2018-09-28T01:25:58.477Z,75.13
2018-09-28T01:27:03.096Z,75.01
2018-09-28T01:28:07.516Z,75.15
2018-09-28T01:29:12.285Z,75.09
2018-09-28T01:30:16.810Z,75.09
2018-09-28T01:31:21.327Z,75.00
2018-09-28T01:32:25.788Z,75.29
2018-09-28T01:33:30.312Z,75.23
2018-09-28T01:34:34.767Z,75.34
2018-09-28T01:35:39.499Z,74.93
2018-09-28T01:36:43.957Z,74.88
2018-09-28T01:37:48.426Z,74.81
2018-09-28T01:38:52.898Z,74.50
2018-09-28T01:39:57.377Z,74.78
2018-09-28T01:41:01.846Z,74.82
2018-09-28T01:42:06.604Z,74.60
2018-09-28T01:43:11.054Z,74.84
2018-09-28T01:44:15.530Z,75.01
2018-09-28T01:45:20.890Z,74.94
2018-09-28T01:46:25.373Z,74.73
2018-09-28T01:47:29.805Z,74.84
2018-09-28T01:48:34.555Z,74.67
2018-09-28T01:49:39.045Z,74.81
2018-09-28T01:50:43.502Z,74.79
2018-09-28T01:51:47.967Z,75.12
2018-09-28T01:52:52.588Z,75.30
2018-09-28T01:54:03.838Z,75.30
2018-09-28T01:55:08.746Z,75.13
2018-09-28T01:56:13.217Z,74.98
2018-09-28T01:57:17.682Z,75.22
2018-09-28T01:58:22.233Z,75.09
2018-09-28T01:59:26.683Z,75.16
2018-09-28T02:00:31.537Z,75.50
2018-09-28T02:01:36.352Z,75.42
2018-09-28T02:02:41.922Z,75.51
2018-09-28T02:03:46.391Z,75.79
2018-09-28T02:04:50.905Z,75.74
2018-09-28T02:05:55.388Z,75.45
2018-09-28T02:06:59.999Z,75.70
2018-09-28T02:08:04.733Z,75.81
2018-09-28T02:09:10.566Z,75.85
2018-09-28T02:10:15.059Z,76.25
2018-09-28T02:11:19.576Z,75.90
2018-09-28T02:12:24.058Z,76.02
2018-09-28T02:13:28.618Z,76.04
2018-09-28T02:14:33.436Z,75.82
2018-09-28T02:15:37.891Z,76.02
2018-09-28T02:16:42.378Z,76.13
2018-09-28T02:17:46.902Z,75.69
2018-09-28T02:18:51.355Z,75.83
2018-09-28T02:19:55.858Z,75.73
2018-09-28T02:21:00.680Z,76.01
2018-09-28T02:22:05.166Z,75.67
2018-09-28T02:23:09.591Z,75.63
2018-09-28T02:24:14.090Z,75.79
2018-09-28T02:25:18.587Z,75.84
2018-09-28T02:26:23.949Z,75.72
2018-09-28T02:27:28.710Z,75.96
2018-09-28T02:28:33.171Z,75.93
2018-09-28T02:29:37.722Z,76.03
2018-09-28T02:30:42.230Z,75.99
2018-09-28T02:31:46.798Z,76.34
2018-09-28T02:32:51.400Z,76.63
2018-09-28T02:33:56.675Z,76.24
2018-09-28T02:35:01.171Z,76.65
2018-09-28T02:36:05.636Z,76.27
2018-09-28T02:37:10.075Z,76.52
2018-09-28T02:38:14.580Z,76.59
2018-09-28T02:39:19.560Z,76.63
2018-09-28T02:40:24.510Z,76.53
2018-09-28T02:41:29.312Z,76.78
2018-09-28T02:42:35.409Z,76.61
2018-09-28T02:43:41.670Z,76.97
2018-09-28T02:44:46.118Z,77.06
2018-09-28T02:45:50.564Z,76.70
2018-09-28T02:46:55.341Z,77.01
2018-09-28T02:47:59.815Z,76.70
2018-09-28T02:49:04.269Z,76.75
2018-09-28T02:50:08.733Z,76.81
2018-09-28T02:51:13.218Z,77.17
2018-09-28T02:52:18.200Z,77.15
2018-09-28T02:53:23.046Z,77.09
2018-09-28T02:54:27.548Z,77.09
2018-09-28T02:55:32.002Z,76.96
2018-09-28T02:56:36.480Z,77.32
2018-09-28T02:57:41.001Z,77.43
2018-09-28T02:58:45.474Z,77.44
2018-09-28T02:59:50.236Z,77.79
2018-09-28T03:00:54.747Z,77.83
2018-09-28T03:01:59.291Z,77.75
2018-09-28T03:03:04.715Z,77.70
2018-09-28T03:04:10.074Z,77.65
2018-09-28T03:05:14.569Z,77.70
2018-09-28T03:06:22.079Z,78.02
2018-09-28T03:07:26.578Z,77.79
2018-09-28T03:08:31.130Z,77.98
2018-09-28T03:09:35.594Z,77.95
2018-09-28T03:10:40.299Z,78.12
2018-09-28T03:11:44.759Z,78.31
2018-09-28T03:12:49.568Z,78.43
2018-09-28T03:13:54.297Z,78.36
2018-09-28T03:14:58.799Z,78.26
2018-09-28T03:16:04.840Z,78.12
2018-09-28T03:17:09.306Z,78.17
2018-09-28T03:18:16.399Z,78.34
2018-09-28T03:19:21.789Z,78.18
2018-09-28T03:20:26.217Z,78.08
2018-09-28T03:21:32.392Z,78.64
2018-09-28T03:22:37.697Z,78.52
2018-09-28T03:23:42.158Z,78.34
2018-09-28T03:24:46.717Z,78.31
2018-09-28T03:25:51.707Z,78.56
2018-09-28T03:26:56.213Z,78.20
2018-09-28T03:28:00.786Z,78.40
2018-09-28T03:29:05.290Z,78.12
2018-09-28T03:30:09.746Z,78.12
2018-09-28T03:31:14.283Z,78.43
2018-09-28T03:32:19.170Z,78.39
2018-09-28T03:33:23.617Z,78.44
2018-09-28T03:34:30.820Z,78.47
2018-09-28T03:35:35.347Z,78.22
2018-09-28T03:36:39.783Z,78.78
2018-09-28T03:37:44.219Z,78.66
2018-09-28T03:38:49.131Z,78.64
2018-09-28T03:39:53.598Z,78.58
2018-09-28T03:40:58.085Z,78.68
2018-09-28T03:42:03.100Z,79.03
2018-09-28T03:43:08.047Z,78.94
2018-09-28T03:44:12.463Z,79.14
2018-09-28T03:45:17.425Z,79.24
2018-09-28T03:46:21.942Z,79.12
2018-09-28T03:47:26.526Z,79.35
2018-09-28T03:48:30.983Z,79.21
2018-09-28T03:49:35.438Z,78.86
2018-09-28T03:50:40.051Z,78.89
2018-09-28T03:51:44.891Z,79.04
2018-09-28T03:52:49.345Z,79.40
2018-09-28T03:53:54.618Z,79.26
2018-09-28T03:54:59.119Z,79.13
2018-09-28T03:56:03.654Z,79.30
2018-09-28T03:57:08.148Z,79.49
2018-09-28T03:58:12.979Z,79.50
2018-09-28T03:59:17.430Z,79.52
2018-09-28T04:00:21.933Z,79.35
2018-09-28T04:01:26.436Z,80.03
2018-09-28T04:02:32.028Z,79.64
2018-09-28T04:03:36.507Z,79.66
2018-09-28T04:04:40.958Z,79.62
2018-09-28T04:05:46.383Z,79.59
2018-09-28T04:06:51.481Z,79.75
2018-09-28T04:07:57.705Z,79.89
2018-09-28T04:09:02.248Z,79.59
2018-09-28T04:10:07.701Z,80.09
2018-09-28T04:11:12.208Z,80.39
2018-09-28T04:12:16.659Z,79.98
2018-09-28T04:13:21.997Z,80.13
2018-09-28T04:14:26.515Z,80.41
2018-09-28T04:15:31.018Z,80.09
2018-09-28T04:16:35.999Z,80.41
2018-09-28T04:17:40.526Z,80.33
2018-09-28T04:18:44.993Z,80.45
2018-09-28T04:19:49.475Z,80.28
2018-09-28T04:20:53.970Z,80.41
2018-09-28T04:22:00.587Z,80.37
2018-09-28T04:23:05.445Z,80.40
2018-09-28T04:24:09.981Z,80.27
2018-09-28T04:25:14.538Z,80.01
2018-09-28T04:26:19.010Z,79.97
2018-09-28T04:27:23.994Z,80.14
2018-09-28T04:28:28.434Z,80.06
2018-09-28T04:29:33.178Z,80.09
2018-09-28T04:30:39.118Z,80.28
2018-09-28T04:31:43.642Z,80.25
2018-09-28T04:32:48.162Z,80.18
2018-09-28T04:33:52.717Z,80.34
2018-09-28T04:34:57.355Z,80.30
2018-09-28T04:36:02.162Z,80.26
2018-09-28T04:37:06.851Z,80.57
2018-09-28T04:38:11.311Z,80.57
2018-09-28T04:39:15.770Z,80.58
2018-09-28T04:40:20.236Z,80.56
2018-09-28T04:41:24.708Z,80.67
2018-09-28T04:42:29.965Z,80.70
2018-09-28T04:43:34.483Z,80.88
2018-09-28T04:44:39.001Z,80.93
2018-09-28T04:45:44.778Z,81.11
2018-09-28T04:46:49.231Z,80.84
2018-09-28T04:47:55.211Z,81.10
2018-09-28T04:48:59.658Z,81.38
2018-09-28T04:50:04.148Z,81.25
2018-09-28T04:51:08.673Z,81.47
2018-09-28T04:52:13.124Z,81.38
2018-09-28T04:53:17.602Z,81.92
2018-09-28T04:54:23.399Z,82.08
2018-09-28T04:55:27.850Z,82.52
2018-09-28T04:56:32.446Z,82.99
2018-09-28T04:57:36.937Z,82.97
2018-09-28T04:58:41.406Z,82.93
2018-09-28T04:59:45.936Z,83.65
2018-09-28T05:00:50.401Z,83.62
2018-09-28T05:01:55.412Z,83.64
2018-09-28T05:02:59.916Z,83.84
2018-09-28T05:04:07.317Z,83.68
2018-09-28T05:05:12.357Z,83.82
2018-09-28T05:06:17.343Z,83.68
2018-09-28T05:07:22.640Z,83.75
2018-09-28T05:08:28.673Z,83.47
2018-09-28T05:09:33.108Z,83.50
2018-09-28T05:10:37.611Z,83.48
2018-09-28T05:11:42.099Z,83.39
2018-09-28T05:12:46.591Z,83.32
2018-09-28T05:13:51.667Z,83.01
2018-09-28T05:14:56.338Z,83.33
2018-09-28T05:16:00.818Z,83.24
2018-09-28T05:17:05.329Z,82.81
2018-09-28T05:18:10.213Z,82.97
2018-09-28T05:19:14.691Z,82.94
2018-09-28T05:20:19.247Z,82.72
2018-09-28T05:21:23.709Z,82.78
2018-09-28T05:22:28.245Z,82.90
2018-09-28T05:23:32.793Z,82.96
2018-09-28T05:24:37.700Z,82.84
2018-09-28T05:25:42.187Z,82.74
2018-09-28T05:26:46.700Z,82.91
2018-09-28T05:27:51.276Z,82.96
2018-09-28T05:28:56.022Z,83.01
2018-09-28T05:30:00.621Z,82.62
2018-09-28T05:31:06.674Z,82.83
2018-09-28T05:45:55.262Z,83.53
2018-09-28T05:47:01.479Z,83.58
2018-09-28T05:48:07.047Z,83.41
2018-09-28T05:49:11.970Z,83.34
2018-09-28T05:50:17.270Z,83.53
2018-09-28T05:51:22.611Z,83.49
2018-09-28T05:52:27.596Z,83.17
2018-09-28T05:53:32.234Z,83.25
2018-09-28T05:54:37.070Z,82.87
2018-09-28T05:55:41.993Z,82.90
2018-09-28T05:56:47.053Z,82.83
2018-09-28T05:57:53.369Z,82.58
2018-09-28T05:59:03.252Z,82.31
2018-09-28T06:00:13.640Z,82.04
2018-09-28T06:01:23.558Z,81.73
2018-09-28T06:02:37.054Z,81.35
2018-09-28T06:03:47.149Z,81.11
2018-09-28T06:04:56.781Z,80.77
2018-09-28T06:06:03.618Z,80.36
2018-09-28T06:07:08.652Z,80.27
2018-09-28T06:08:13.946Z,79.96
2018-09-28T06:09:19.130Z,79.71
2018-09-28T06:10:25.015Z,79.76
2018-09-28T06:11:37.576Z,79.43
2018-09-28T06:12:42.640Z,79.33
2018-09-28T06:13:49.602Z,79.40
2018-09-28T06:14:54.733Z,78.91
2018-09-28T06:16:01.981Z,79.27
2018-09-28T06:17:07.203Z,79.19
2018-09-28T06:18:11.726Z,78.87
2018-09-28T06:19:17.289Z,78.45
2018-09-28T06:20:22.089Z,78.86
2018-09-28T06:21:26.607Z,78.82
2018-09-28T06:22:31.298Z,78.66
2018-09-28T06:23:36.116Z,78.75
2018-09-28T06:24:41.233Z,78.84
2018-09-28T06:25:45.963Z,78.81
2018-09-28T06:26:51.841Z,78.90
2018-09-28T06:27:56.343Z,78.97
2018-09-28T06:29:00.879Z,78.73
2018-09-28T06:30:06.688Z,78.79
2018-09-28T06:31:11.159Z,78.76
2018-09-28T06:32:15.631Z,78.93
2018-09-28T06:33:20.188Z,78.80
2018-09-28T06:34:25.748Z,78.92
2018-09-28T06:35:30.386Z,78.44
2018-09-28T06:36:37.156Z,78.21
2018-09-28T06:37:41.622Z,78.01
2018-09-28T06:38:46.065Z,76.80
2018-09-28T06:39:50.574Z,76.34
2018-09-28T06:40:57.134Z,76.51
2018-09-28T06:42:03.252Z,76.05
2018-09-28T06:43:08.088Z,76.35
2018-09-28T06:44:15.367Z,77.19
2018-09-28T06:45:19.802Z,78.02
2018-09-28T06:46:24.560Z,78.57
2018-09-28T06:47:29.818Z,79.56
2018-09-28T06:48:34.838Z,80.46
2018-09-28T06:49:41.266Z,80.81
2018-09-28T06:50:45.717Z,80.91
2018-09-28T06:51:51.090Z,81.31
2018-09-28T06:52:56.198Z,80.92
2018-09-28T06:54:01.326Z,81.30
2018-09-28T06:55:08.652Z,81.14
2018-09-28T06:56:13.099Z,81.16
2018-09-28T06:57:18.220Z,81.44
2018-09-28T06:58:23.269Z,81.16
2018-09-28T06:59:27.771Z,80.59
2018-09-28T07:00:32.274Z,80.58
2018-09-28T07:01:38.490Z,80.83
2018-09-28T07:02:43.646Z,80.80
2018-09-28T07:03:48.160Z,80.82
2018-09-28T07:04:52.809Z,81.25
2018-09-28T07:05:57.312Z,81.19
2018-09-28T07:07:01.821Z,81.35
2018-09-28T07:08:07.622Z,80.81
2018-09-28T07:09:13.226Z,80.70
2018-09-28T07:10:17.911Z,81.01
2018-09-28T07:11:22.531Z,80.59
2018-09-28T07:12:27.001Z,80.49
2018-09-28T07:13:31.589Z,80.54
2018-09-28T07:14:37.556Z,80.57
2018-09-28T07:15:42.241Z,80.21
2018-09-28T07:16:46.819Z,79.85
2018-09-28T07:17:52.143Z,79.59
2018-09-28T07:18:56.799Z,79.28
2018-09-28T07:20:01.464Z,79.01
2018-09-28T07:21:06.374Z,79.18
2018-09-28T07:22:10.854Z,79.25
2018-09-28T07:23:15.345Z,79.69
2018-09-28T07:24:27.501Z,79.68
2018-09-28T07:25:32.699Z,79.61
2018-09-28T07:26:37.146Z,79.54
2018-09-28T07:27:42.421Z,79.29
2018-09-28T07:28:47.564Z,79.40
2018-09-28T07:29:55.492Z,79.31
2018-09-28T07:31:00.131Z,79.78
2018-09-28T07:32:05.267Z,79.62
2018-09-28T07:33:10.758Z,79.59
2018-09-28T07:34:16.687Z,79.38
2018-09-28T07:35:22.091Z,79.21
2018-09-28T07:36:26.611Z,79.41
2018-09-28T07:37:31.291Z,79.02
2018-09-28T07:38:35.857Z,79.00
2018-09-28T07:39:44.283Z,78.79
2018-09-28T07:40:52.786Z,79.23
2018-09-28T07:41:57.377Z,79.14
2018-09-28T07:43:01.934Z,78.69
2018-09-28T07:44:09.095Z,79.08
2018-09-28T07:45:13.565Z,78.75
2018-09-28T07:46:18.412Z,79.02
2018-09-28T07:47:23.246Z,79.01
2018-09-28T07:48:27.756Z,79.25
2018-09-28T07:49:33.643Z,79.33
2018-09-28T07:50:42.593Z,79.20
2018-09-28T07:51:49.688Z,78.94
2018-09-28T07:52:54.206Z,79.26
2018-09-28T07:53:59.334Z,79.11
2018-09-28T07:55:05.857Z,78.98
2018-09-28T07:56:10.385Z,78.75
2018-09-28T07:57:15.584Z,78.56
2018-09-28T07:58:20.470Z,78.75
2018-09-28T07:59:26.948Z,78.43
2018-09-28T08:00:35.131Z,78.40
2018-09-28T08:01:40.337Z,78.70
2018-09-28T08:02:45.441Z,78.47
2018-09-28T08:03:50.142Z,78.81
2018-09-28T08:04:55.870Z,78.74
2018-09-28T08:06:01.336Z,78.99
2018-09-28T08:07:07.312Z,78.91
2018-09-28T08:08:12.489Z,78.84
2018-09-28T08:09:16.978Z,79.26
2018-09-28T08:10:21.581Z,79.05
2018-09-28T08:11:29.603Z,79.44
2018-09-28T08:12:35.359Z,79.20
2018-09-28T08:13:41.724Z,79.11
2018-09-28T08:14:46.553Z,79.28
2018-09-28T08:15:51.738Z,79.07
2018-09-28T08:16:56.762Z,78.76
2018-09-28T08:18:02.472Z,78.85
2018-09-28T08:19:08.621Z,79.16
2018-09-28T08:20:14.308Z,79.27
2018-09-28T08:21:19.582Z,79.16
2018-09-28T08:22:25.052Z,79.38
2018-09-28T08:23:30.899Z,79.46
2018-09-28T08:24:35.791Z,79.47
2018-09-28T08:25:42.375Z,79.20
2018-09-28T08:26:47.538Z,79.30
2018-09-28T08:27:52.690Z,79.28
2018-09-28T08:28:57.330Z,78.92
2018-09-28T08:30:02.016Z,79.23
2018-09-28T08:31:08.549Z,79.23
2018-09-28T08:32:12.990Z,78.91
2018-09-28T08:33:17.511Z,79.12
2018-09-28T08:34:22.044Z,78.93
2018-09-28T08:35:28.064Z,78.62
2018-09-28T08:36:32.658Z,78.80
2018-09-28T08:37:38.703Z,79.00
2018-09-28T08:38:43.792Z,79.05
2018-09-28T08:39:48.297Z,78.94
2018-09-28T08:40:55.760Z,79.13
2018-09-28T08:42:02.265Z,79.14
2018-09-28T08:43:08.291Z,79.42
2018-09-28T08:44:14.987Z,79.60
2018-09-28T08:45:21.329Z,79.39
2018-09-28T08:46:25.880Z,79.35
2018-09-28T08:47:32.462Z,79.41
2018-09-28T08:48:37.026Z,79.05
2018-09-28T08:49:43.544Z,78.96
2018-09-28T08:50:48.945Z,78.75
2018-09-28T08:51:53.421Z,78.47
2018-09-28T08:52:59.707Z,78.62
2018-09-28T08:54:06.310Z,78.60
2018-09-28T08:55:13.160Z,78.62
2018-09-28T08:56:19.287Z,78.52
2018-09-28T08:57:24.593Z,78.72
2018-09-28T08:58:29.310Z,78.64
2018-09-28T08:59:33.974Z,78.58
2018-09-28T09:00:42.462Z,78.54
2018-09-28T09:01:47.834Z,78.44
2018-09-28T09:02:52.414Z,78.02
2018-09-28T09:04:07.717Z,77.94
2018-09-28T09:05:15.683Z,77.91
2018-09-28T09:06:27.367Z,77.62
2018-09-28T09:09:16.299Z,77.81
2018-09-28T09:10:32.043Z,77.69
2018-09-28T09:11:37.286Z,77.85
2018-09-28T09:12:48.797Z,77.85
2018-09-28T09:15:06.655Z,77.85
2018-09-28T09:16:40.223Z,77.92
2018-09-28T09:17:48.341Z,77.87
2018-09-28T09:19:04.839Z,77.76
2018-09-28T09:20:13.175Z,77.47
2018-09-28T09:21:18.248Z,77.60
2018-09-28T09:22:22.862Z,77.71
2018-09-28T09:23:27.553Z,77.67
2018-09-28T09:24:33.095Z,77.79
2018-09-28T09:25:39.285Z,77.86
2018-09-28T09:26:44.645Z,77.65
2018-09-28T09:27:51.431Z,77.71
2018-09-28T09:28:56.066Z,77.50
2018-09-28T09:30:04.751Z,77.58
2018-09-28T09:31:10.785Z,77.33
2018-09-28T09:32:16.540Z,77.41
2018-09-28T09:33:21.173Z,77.46
2018-09-28T09:34:26.385Z,77.35
2018-09-28T09:35:32.364Z,77.59
2018-09-28T09:36:41.088Z,77.47
2018-09-28T09:37:48.775Z,77.51
2018-09-28T09:38:54.345Z,77.60
2018-09-28T09:40:10.833Z,77.26
2018-09-28T09:41:30.680Z,77.32
2018-09-28T09:42:35.935Z,77.12
2018-09-28T09:43:40.757Z,77.06
2018-09-28T09:44:48.056Z,77.22
2018-09-28T09:45:53.308Z,77.29
2018-09-28T09:46:58.752Z,77.37
2018-09-28T09:48:03.578Z,77.27
2018-09-28T09:49:09.789Z,77.35
2018-09-28T09:50:14.607Z,77.24
2018-09-28T09:51:28.420Z,77.23
2018-09-28T09:52:33.063Z,77.07
2018-09-28T09:53:39.247Z,77.01
2018-09-28T09:54:43.988Z,76.88
2018-09-28T09:55:48.633Z,76.64
2018-09-28T09:56:55.027Z,76.59
2018-09-28T09:58:00.067Z,76.69
2018-09-28T09:59:04.683Z,76.59
2018-09-28T10:00:10.320Z,76.59
2018-09-28T10:01:20.029Z,76.59
2018-09-28T10:02:30.369Z,76.54
2018-09-28T10:03:40.221Z,75.88
2018-09-28T10:04:45.521Z,75.60
2018-09-28T10:05:50.291Z,75.66
2018-09-28T10:06:55.584Z,75.55
2018-09-28T10:08:01.063Z,75.84
2018-09-28T10:09:11.504Z,76.86
2018-09-28T10:10:16.037Z,76.96
2018-09-28T10:11:20.691Z,77.47
2018-09-28T10:12:25.344Z,77.83
2018-09-28T10:13:30.069Z,78.00
2018-09-28T10:14:35.071Z,78.25
2018-09-28T10:15:40.760Z,78.76
2018-09-28T10:16:48.308Z,79.48
2018-09-28T10:17:53.149Z,79.23
2018-09-28T10:19:00.301Z,79.49
2018-09-28T10:20:07.071Z,79.38
2018-09-28T10:21:11.905Z,79.19
2018-09-28T10:22:17.026Z,79.10
2018-09-28T10:23:22.258Z,79.70
2018-09-28T10:24:28.589Z,79.45
2018-09-28T10:25:34.738Z,79.54
2018-09-28T10:26:47.108Z,79.62
2018-09-28T10:27:51.744Z,79.56
2018-09-28T10:28:57.153Z,79.72
2018-09-28T10:30:02.241Z,79.59
2018-09-28T10:31:06.842Z,79.76
2018-09-28T10:45:04.965Z,79.08
2018-09-28T10:46:13.636Z,78.73
2018-09-28T10:47:18.463Z,78.92
2018-09-28T10:48:23.823Z,78.54
2018-09-28T10:49:28.355Z,78.78
2018-09-28T10:50:36.336Z,78.60
2018-09-28T10:51:41.634Z,78.69
2018-09-28T10:52:53.258Z,78.89
2018-09-28T10:54:00.839Z,78.77
2018-09-28T10:55:09.648Z,78.76
2018-09-28T10:56:19.010Z,79.11
2018-09-28T10:57:25.559Z,79.11
2018-09-28T10:58:34.269Z,78.80
2018-09-28T10:59:41.242Z,78.66
2018-09-28T11:00:48.425Z,79.02
2018-09-28T11:01:54.644Z,78.67
2018-09-28T11:03:02.272Z,78.85
2018-09-28T11:04:10.641Z,78.90
2018-09-28T11:05:18.474Z,78.85
2018-09-28T11:06:23.598Z,78.80
2018-09-28T11:09:58.575Z,78.59
2018-09-28T11:11:03.516Z,78.60
2018-09-28T11:12:09.676Z,78.76
2018-09-28T11:13:17.207Z,78.90
2018-09-28T11:15:36.002Z,78.99
2018-09-28T11:16:47.123Z,78.92
2018-09-28T11:17:52.968Z,79.06
2018-09-28T11:19:01.283Z,78.89
2018-09-28T11:20:10.072Z,78.81
2018-09-28T11:21:17.346Z,78.93
2018-09-28T11:22:24.125Z,79.09
2018-09-28T11:23:30.031Z,79.29
2018-09-28T11:24:36.789Z,79.06
2018-09-28T11:25:43.313Z,79.17
2018-09-28T11:26:48.819Z,79.34
2018-09-28T11:27:53.680Z,79.71
2018-09-28T11:29:00.410Z,79.97
2018-09-28T11:30:07.293Z,80.01
2018-09-28T11:31:13.520Z,79.87
2018-09-28T11:32:18.127Z,79.71
2018-09-28T11:33:23.816Z,79.82
2018-09-28T11:34:30.674Z,79.66
2018-09-28T11:35:36.093Z,79.44
2018-09-28T11:36:40.589Z,79.36
2018-09-28T11:37:45.845Z,79.57
2018-09-28T11:38:50.387Z,79.48
2018-09-28T11:39:55.393Z,79.74
2018-09-28T11:41:00.659Z,79.66
2018-09-28T11:42:11.218Z,79.18
2018-09-28T11:43:16.777Z,78.89
2018-09-28T11:44:23.200Z,79.05
2018-09-28T11:45:28.501Z,78.85
2018-09-28T11:46:33.131Z,78.61
2018-09-28T11:47:38.020Z,78.77
2018-09-28T11:48:43.002Z,78.49
2018-09-28T11:49:47.921Z,78.74
2018-09-28T11:50:52.361Z,79.09
2018-09-28T11:52:00.082Z,78.83
2018-09-28T11:53:05.440Z,78.92
2018-09-28T11:54:12.247Z,79.11
2018-09-28T11:55:16.714Z,79.13
2018-09-28T11:56:21.511Z,79.27
2018-09-28T11:57:26.220Z,79.01
2018-09-28T11:58:31.215Z,78.82
2018-09-28T11:59:35.664Z,79.13
2018-09-28T12:00:40.471Z,79.49
2018-09-28T12:01:47.048Z,79.71
2018-09-28T12:02:58.435Z,79.72
2018-09-28T12:04:04.406Z,79.64
2018-09-28T12:05:12.825Z,79.67
2018-09-28T12:06:19.552Z,79.51
2018-09-28T12:07:25.586Z,79.58
2018-09-28T12:08:30.283Z,79.66
2018-09-28T12:09:34.846Z,79.82
2018-09-28T12:10:40.837Z,79.78
2018-09-28T12:11:50.669Z,79.72
2018-09-28T12:12:56.266Z,80.15
2018-09-28T12:14:02.217Z,79.99
2018-09-28T12:15:07.266Z,80.00
2018-09-28T12:16:13.054Z,79.96
2018-09-28T12:17:17.893Z,80.09
2018-09-28T12:18:23.109Z,80.02
2018-09-28T12:19:28.396Z,80.04
2018-09-28T12:20:33.131Z,80.16
2018-09-28T12:21:38.686Z,80.21
2018-09-28T12:22:45.010Z,80.06
2018-09-28T12:23:49.833Z,79.88
2018-09-28T12:24:57.373Z,79.82
2018-09-28T12:26:04.537Z,79.84
2018-09-28T12:27:09.495Z,79.82
2018-09-28T12:28:14.023Z,79.42
2018-09-28T12:29:18.586Z,79.26
2018-09-28T12:30:23.064Z,78.94
2018-09-28T12:31:27.751Z,79.01
2018-09-28T12:32:33.054Z,79.12
2018-09-28T12:33:37.620Z,78.85
2018-09-28T12:34:42.433Z,78.80
2018-09-28T12:35:47.498Z,78.77
2018-09-28T12:36:52.336Z,78.45
2018-09-28T12:37:57.947Z,78.54
2018-09-28T12:39:03.992Z,78.65
2018-09-28T12:40:09.414Z,78.75
2018-09-28T12:41:14.330Z,78.46
2018-09-28T12:42:20.588Z,78.51
2018-09-28T12:43:26.903Z,78.43
2018-09-28T12:44:32.145Z,78.03
2018-09-28T12:45:38.904Z,78.23
2018-09-28T12:46:43.455Z,78.24
2018-09-28T12:47:47.906Z,78.14
2018-09-28T12:48:54.077Z,77.51
2018-09-28T12:49:59.261Z,77.42
2018-09-28T12:51:03.816Z,77.25
2018-09-28T12:52:09.248Z,77.20
2018-09-28T12:53:13.845Z,77.35
2018-09-28T12:54:18.399Z,77.46
2018-09-28T12:55:23.301Z,77.53
2018-09-28T12:56:28.023Z,77.50
2018-09-28T12:57:33.610Z,77.69
2018-09-28T12:58:39.634Z,77.27
2018-09-28T12:59:44.713Z,77.31
2018-09-28T13:00:49.361Z,77.26
2018-09-28T13:01:54.890Z,77.29
2018-09-28T13:02:59.344Z,77.27
2018-09-28T13:04:03.937Z,77.06
2018-09-28T13:05:11.262Z,77.32
2018-09-28T13:06:16.483Z,77.10
2018-09-28T13:07:21.359Z,77.02
2018-09-28T13:08:26.161Z,77.03
2018-09-28T13:09:30.713Z,76.61
2018-09-28T13:10:36.112Z,76.60
2018-09-28T13:11:42.114Z,76.66
2018-09-28T13:12:47.196Z,76.68
2018-09-28T13:13:51.743Z,76.56
2018-09-28T13:14:58.089Z,76.49
2018-09-28T13:16:02.960Z,76.38
2018-09-28T13:17:08.395Z,76.49
2018-09-28T13:18:13.351Z,76.32
2018-09-28T13:19:17.890Z,76.34
2018-09-28T13:20:22.436Z,75.97
2018-09-28T13:21:27.358Z,75.91
2018-09-28T13:22:32.920Z,75.78
2018-09-28T13:23:38.773Z,75.95
2018-09-28T13:24:44.227Z,75.82
2018-09-28T13:25:49.594Z,75.86
2018-09-28T13:26:54.093Z,75.49
2018-09-28T13:28:00.273Z,75.54
2018-09-28T13:29:05.190Z,75.31
2018-09-28T13:30:09.762Z,75.46
2018-09-28T13:31:18.116Z,75.13
2018-09-28T13:32:22.693Z,75.27
2018-09-28T13:33:28.067Z,75.17
2018-09-28T13:34:32.555Z,75.19
2018-09-28T13:35:39.302Z,74.63
2018-09-28T13:36:50.681Z,74.73
2018-09-28T13:37:56.736Z,74.49
2018-09-28T13:39:01.508Z,74.62
2018-09-28T13:40:06.358Z,74.36
2018-09-28T13:41:11.792Z,74.53
2018-09-28T13:42:17.735Z,73.99
2018-09-28T13:43:22.906Z,73.84
2018-09-28T13:44:28.660Z,73.87
2018-09-28T13:45:34.346Z,73.66
2018-09-28T13:47:42.294Z,72.97
2018-09-28T13:48:47.927Z,72.61
2018-09-28T13:49:52.849Z,72.22
2018-09-28T13:50:58.766Z,72.48
2018-09-28T13:52:04.515Z,72.17
2018-09-28T13:53:09.038Z,71.72
2018-09-28T13:54:14.596Z,71.95
2018-09-28T13:55:20.004Z,71.55
2018-09-28T13:56:25.563Z,71.06
2018-09-28T13:57:31.015Z,70.56
2018-09-28T13:58:36.429Z,70.52
2018-09-28T13:59:41.817Z,69.60
2018-09-28T14:00:55.170Z,69.77
2018-09-28T14:02:00.230Z,69.27
2018-09-28T14:03:09.254Z,68.84
2018-09-28T14:04:17.465Z,68.45
2018-09-28T14:05:24.223Z,67.90
2018-09-28T14:06:31.599Z,67.86
2018-09-28T14:07:38.103Z,67.91
2018-09-28T14:08:46.629Z,68.12
2018-09-28T14:09:54.018Z,68.18
2018-09-28T14:11:02.269Z,68.25
2018-09-28T14:12:07.875Z,68.12
2018-09-28T14:13:13.354Z,68.05
2018-09-28T14:14:23.649Z,67.96
2018-09-28T14:15:29.211Z,67.45
2018-09-28T14:16:36.307Z,67.20
2018-09-28T14:17:42.654Z,67.12
2018-09-28T14:18:47.341Z,67.25
2018-09-28T14:19:51.880Z,67.06
2018-09-28T14:20:56.426Z,67.17
2018-09-28T14:22:01.311Z,66.64
2018-09-28T14:23:05.832Z,66.57
2018-09-28T14:24:10.702Z,65.94
2018-09-28T14:25:15.249Z,65.40
2018-09-28T14:26:20.417Z,65.21
2018-09-28T14:27:25.033Z,65.12
2018-09-28T14:28:30.008Z,65.37
2018-09-28T14:29:34.480Z,65.03
2018-09-28T14:30:38.992Z,65.29
2018-09-28T14:31:43.882Z,64.83
2018-09-28T14:32:48.406Z,64.41
2018-09-28T14:33:53.154Z,64.11
2018-09-28T14:34:58.117Z,63.52
2018-09-28T14:36:04.803Z,63.77
2018-09-28T14:37:22.250Z,63.22
2018-09-28T14:38:27.772Z,62.39